Time;durP1;ratioP1;P1;durP2;ratioP2;P2;SDS_P1;SDS_P2;PMS_P1;PMS_P2;Temp;Humidity;BMP_temperature;BMP_pressure;BME280_temperature;BME280_humidity;BME280_pressure;Samples;Min_cycle;Max_cycle;Signal;HPM_P1;HPM_P2
2022/05/28 00:02:17;;;;;;;9.73;2.63;;;;;;;17.78;48.27;102053.91;5031167;28;20037;-69
2022/05/28 00:04:43;;;;;;;6.85;2.25;;;;;;;17.54;49.03;102054.00;5031656;28;20033;-69
2022/05/28 00:07:08;;;;;;;14.18;2.88;;;;;;;17.25;49.68;102065.84;5031038;28;20544;-70
2022/05/28 00:09:34;;;;;;;10.35;1.30;;;;;;;17.58;48.69;102056.22;5031006;28;20033;-69
2022/05/28 00:12:01;;;;;;;15.20;2.28;;;;;;;17.65;48.74;102044.13;5031188;28;20120;-70
2022/05/28 00:14:27;;;;;;;10.48;1.80;;;;;;;17.86;48.63;102053.50;5013325;28;20043;-68
2022/05/28 00:16:52;;;;;;;6.28;1.45;;;;;;;17.89;48.60;102051.13;5032031;28;20030;-69
2022/05/28 00:19:17;;;;;;;9.15;2.50;;;;;;;18.09;47.71;102054.22;5033068;28;20033;-69
2022/05/28 00:21:43;;;;;;;8.75;1.65;;;;;;;18.27;47.50;102047.72;5034891;28;20058;-70
2022/05/28 00:24:09;;;;;;;10.45;2.00;;;;;;;18.04;47.98;102051.38;5034359;28;20084;-73
2022/05/28 00:26:34;;;;;;;6.95;1.25;;;;;;;17.62;48.97;102046.50;5034526;28;20037;-70
2022/05/28 00:29:02;;;;;;;12.18;1.30;;;;;;;17.48;49.31;102043.22;5034478;28;20059;-71
2022/05/28 00:31:28;;;;;;;10.32;1.75;;;;;;;17.76;49.09;102039.72;5035104;28;20512;-70
2022/05/28 00:33:53;;;;;;;7.53;1.48;;;;;;;17.79;48.93;102050.94;5034515;28;20037;-71
2022/05/28 00:36:19;;;;;;;10.73;1.90;;;;;;;17.36;49.53;102048.69;5034171;28;20513;-69
2022/05/28 00:38:45;;;;;;;6.85;1.50;;;;;;;17.47;49.57;102055.16;5034291;28;20033;-72
2022/05/28 00:41:12;;;;;;;11.43;2.03;;;;;;;17.51;49.81;102045.50;5034093;28;20029;-72
2022/05/28 00:43:40;;;;;;;8.50;1.33;;;;;;;17.90;48.62;102047.34;5034914;28;20173;-72
2022/05/28 00:46:25;;;;;;;14.65;2.67;;;;;;;18.56;47.38;102040.31;5033996;28;20085;-70
2022/05/28 00:48:56;;;;;;;9.30;1.80;;;;;;;17.65;49.31;102044.13;5034078;28;20400;-72
2022/05/28 00:51:23;;;;;;;;;;;;;;;17.62;49.38;102051.94;5034804;28;20037;-71
2022/05/28 00:53:50;;;;;;;10.23;1.90;;;;;;;18.32;49.35;102039.63;5033617;28;19917;-68
2022/05/28 00:56:15;;;;;;;4.93;1.08;;;;;;;17.50;52.44;102039.22;5033815;28;20037;-69
2022/05/28 00:58:41;;;;;;;7.00;1.67;;;;;;;18.20;50.60;102031.53;5034441;28;20470;-67
2022/05/28 01:01:08;;;;;;;4.85;1.45;;;;;;;17.81;54.09;102050.72;5033929;28;20041;-68
2022/05/28 01:03:54;;;;;;;16.48;1.98;;;;;;;17.22;56.66;102038.31;5033787;28;20551;-68
2022/05/28 01:06:38;;;;;;;10.82;2.25;;;;;;;16.75;57.85;102059.28;5033463;28;20044;-70
2022/05/28 01:09:35;;;;;;;15.15;2.25;;;;;;;16.41;58.72;102058.16;5033842;28;20072;-70
2022/05/28 01:12:15;;;;;;;9.88;1.80;;;;;;;16.81;58.46;102044.75;4991523;28;20458;-68
2022/05/28 01:15:17;;;;;;;5.05;1.45;;;;;;;16.31;58.65;102048.97;4971925;28;20038;-69
2022/05/28 01:17:55;;;;;;;11.05;1.65;;;;;;;16.64;57.51;102050.09;4876905;29;20120;-69
2022/05/28 01:20:40;;;;;;;6.43;1.60;;;;;;;16.88;57.06;102060.94;4876889;29;20045;-67
2022/05/28 01:23:17;;;;;;;7.15;1.45;;;;;;;16.50;57.73;102073.09;4884944;29;20132;-68
2022/05/28 01:26:07;;;;;;;4.35;0.90;;;;;;;16.56;56.70;102074.88;4896009;29;20501;-70
2022/05/28 01:28:37;;;;;;;6.68;0.90;;;;;;;16.47;57.58;102078.94;4895288;29;20048;-72
2022/05/28 01:31:05;;;;;;;7.93;0.93;;;;;;;16.22;56.98;102070.16;4895288;29;20048;-72
2022/05/28 01:33:33;;;;;;;5.80;1.70;;;;;;;16.44;56.67;102082.13;4895346;29;20137;-71
2022/05/28 01:36:00;;;;;;;9.90;1.30;;;;;;;16.14;57.65;102086.75;4895273;29;20054;-70
2022/05/28 01:38:28;;;;;;;5.45;0.93;;;;;;;16.44;56.39;102090.25;4894900;29;20040;-70
2022/05/28 01:40:53;;;;;;;2.78;0.82;;;;;;;15.70;58.38;102087.19;4895662;29;20173;-69
2022/05/28 01:43:20;;;;;;;10.35;1.58;;;;;;;16.03;56.83;102092.16;4895218;29;20044;-72
2022/05/28 01:45:47;;;;;;;7.82;0.95;;;;;;;16.42;56.10;102078.81;4895164;29;20501;-69
2022/05/28 01:48:16;;;;;;;6.85;1.08;;;;;;;16.05;56.78;102082.75;4897214;29;20139;-71
2022/05/28 01:50:45;;;;;;;3.80;0.75;;;;;;;16.01;56.94;102080.72;4903386;29;20415;-69
2022/05/28 01:54:07;;;;;;;7.40;1.30;;;;;;;15.96;56.87;102081.38;4946700;28;20033;-68
2022/05/28 01:56:01;;;;;;;6.30;1.10;;;;;;;15.55;58.13;102086.75;5012953;28;20386;-71
2022/05/28 01:58:26;;;;;;;9.85;1.50;;;;;;;15.63;58.49;102081.03;5013298;28;20481;-69
2022/05/28 02:00:52;;;;;;;4.28;1.13;;;;;;;15.95;57.66;102076.22;5012989;28;20038;-68
2022/05/28 02:03:18;;;;;;;8.50;1.40;;;;;;;15.46;59.21;102094.38;5012741;28;20044;-69
2022/05/28 02:05:44;;;;;;;8.30;1.58;;;;;;;15.89;58.12;102082.53;5012680;28;20121;-69
2022/05/28 02:08:09;;;;;;;6.13;1.27;;;;;;;15.75;58.31;102085.44;5012472;28;20121;-69
2022/05/28 02:10:40;;;;;;;10.82;1.17;;;;;;;15.76;58.67;102086.28;5012947;28;20405;-70
2022/05/28 02:13:16;;;;;;;6.40;1.38;;;;;;;15.42;59.15;102079.63;5012608;28;20457;-71
2022/05/28 02:16:02;;;;;;;3.72;1.23;;;;;;;15.66;58.73;102086.00;5012538;28;20512;-69
2022/05/28 02:18:42;;;;;;;7.30;1.58;;;;;;;15.77;57.90;102083.34;5012535;28;20089;-69
2022/05/28 02:21:15;;;;;;;10.43;2.47;;;;;;;15.71;58.41;102092.38;5012552;28;20033;-69
2022/05/28 02:23:49;;;;;;;9.23;1.38;;;;;;;16.00;57.28;102082.59;5012221;28;20088;-69
2022/05/28 02:26:19;;;;;;;6.40;1.17;;;;;;;15.72;58.23;102093.22;5012825;28;20021;-68
2022/05/28 02:28:46;;;;;;;9.32;1.15;;;;;;;15.97;57.14;102085.78;5012915;28;20042;-69
2022/05/28 02:31:18;;;;;;;9.73;1.65;;;;;;;15.91;57.18;102083.97;5012543;28;20523;-69
2022/05/28 02:33:45;;;;;;;9.57;1.25;;;;;;;16.23;56.61;102089.97;5012267;28;20046;-69
2022/05/28 02:36:13;;;;;;;6.95;1.10;;;;;;;15.82;57.34;102085.38;4994030;28;20057;-69
2022/05/28 02:38:38;;;;;;;4.20;1.15;;;;;;;15.74;57.97;102094.63;5011905;28;20030;-69
2022/05/28 02:41:04;;;;;;;3.42;1.00;;;;;;;15.80;57.22;102074.72;5012137;28;20045;-69
2022/05/28 02:43:31;;;;;;;7.95;1.67;;;;;;;15.77;57.32;102088.75;5012673;28;20096;-69
2022/05/28 02:46:01;;;;;;;3.80;0.93;;;;;;;16.45;55.51;102091.09;5011302;28;20061;-70
2022/05/28 02:48:27;;;;;;;7.03;1.33;;;;;;;15.82;56.84;102086.19;5012234;28;20389;-68
2022/05/28 02:50:52;;;;;;;8.38;1.10;;;;;;;16.54;54.52;102087.00;5012047;28;20116;-68
2022/05/28 02:53:18;;;;;;;8.60;2.05;;;;;;;16.19;54.92;102091.50;5009471;28;20038;-68
2022/05/28 02:55:43;;;;;;;6.35;1.40;;;;;;;16.10;55.24;102082.84;5011406;28;20040;-67
2022/05/28 02:58:08;;;;;;;8.50;1.50;;;;;;;15.13;57.77;102085.75;5011243;28;20065;-70
2022/05/28 03:00:34;;;;;;;5.57;1.20;;;;;;;15.46;56.57;102088.13;5011199;28;20045;-68
2022/05/28 03:02:59;;;;;;;3.58;1.13;;;;;;;15.66;55.71;102086.81;5011214;28;20131;-69
2022/05/28 03:05:26;;;;;;;11.18;1.65;;;;;;;15.58;55.65;102094.44;5011318;28;20041;-69
2022/05/28 03:07:52;;;;;;;5.25;0.93;;;;;;;15.07;56.77;102092.06;5011360;28;20045;-68
2022/05/28 03:10:17;;;;;;;12.70;1.30;;;;;;;15.31;56.14;102093.88;5011754;28;20423;-69
2022/05/28 03:12:42;;;;;;;12.68;1.58;;;;;;;15.51;55.30;102090.97;5011643;28;20680;-68
2022/05/28 03:15:09;;;;;;;10.25;1.38;;;;;;;15.43;55.34;102102.94;5011832;28;20069;-68
2022/05/28 03:17:35;;;;;;;11.48;1.08;;;;;;;15.45;55.11;102095.41;5011863;28;20503;-67
2022/05/28 03:20:03;;;;;;;6.10;1.40;;;;;;;14.93;57.03;102091.38;5011895;28;20079;-69
2022/05/28 03:22:29;;;;;;;13.10;1.75;;;;;;;14.90;56.77;102096.41;5010219;28;20041;-70
2022/05/28 03:24:54;;;;;;;6.38;1.48;;;;;;;14.99;55.77;102103.19;5011384;28;20130;-71
2022/05/28 03:27:20;;;;;;;8.75;1.75;;;;;;;15.04;55.42;102094.38;5011482;28;20088;-67
2022/05/28 03:29:45;;;;;;;8.80;1.77;;;;;;;14.65;56.69;102101.00;5011858;28;20042;-66
2022/05/28 03:32:10;;;;;;;7.95;1.15;;;;;;;14.76;56.35;102106.50;5011806;28;20076;-69
2022/05/28 03:34:36;;;;;;;3.60;1.88;;;;;;;15.04;55.08;102106.03;5012140;28;20470;-69
2022/05/28 03:37:02;;;;;;;13.18;1.65;;;;;;;15.70;53.51;102111.59;5011414;28;20161;-68
2022/05/28 03:39:28;;;;;;;8.88;1.65;;;;;;;14.75;55.53;102118.41;5011334;28;20117;-72
2022/05/28 03:41:53;;;;;;;7.38;1.63;;;;;;;15.20;54.27;102112.75;5011240;28;20041;-67
2022/05/28 03:44:19;;;;;;;9.32;1.33;;;;;;;15.65;52.71;102112.25;5011370;28;20110;-68
2022/05/28 03:46:44;;;;;;;7.18;1.13;;;;;;;15.58;52.54;102111.53;5011995;28;20153;-66
2022/05/28 03:49:25;;;;;;;10.10;0.90;;;;;;;14.95;54.39;102118.22;5011481;28;20184;-69
2022/05/28 03:51:51;;;;;;;10.45;1.65;;;;;;;15.66;52.29;102103.06;5011832;28;20034;-68
2022/05/28 03:54:17;;;;;;;2.33;1.15;;;;;;;15.27;53.18;102103.50;5015112;28;20382;-67
2022/05/28 03:56:43;;;;;;;8.55;1.20;;;;;;;14.48;55.20;102108.00;5015227;28;20037;-66
2022/05/28 03:59:10;;;;;;;8.80;1.55;;;;;;;15.13;53.57;102102.00;5015428;28;20474;-69
2022/05/28 04:01:37;;;;;;;7.70;1.20;;;;;;;15.57;52.35;102111.72;5014706;28;20029;-68
2022/05/28 04:04:03;;;;;;;8.82;1.05;;;;;;;16.06;51.31;102107.97;5014689;28;20121;-68
2022/05/28 04:06:29;;;;;;;5.53;1.48;;;;;;;15.55;51.58;102117.38;5014339;28;20084;-70
2022/05/28 04:08:54;;;;;;;10.60;2.17;;;;;;;15.34;52.08;102115.09;5014717;28;20061;-68
2022/05/28 04:11:20;;;;;;;10.15;1.33;;;;;;;15.77;51.14;102123.16;5014475;28;20034;-67
2022/05/28 04:13:46;;;;;;;3.78;0.98;;;;;;;15.86;51.35;102116.38;5015119;28;20037;-67
2022/05/28 04:16:13;;;;;;;11.27;1.60;;;;;;;15.59;52.04;102120.47;5014566;28;20072;-67
2022/05/28 04:18:40;;;;;;;6.72;1.58;;;;;;;15.35;52.55;102121.34;5014736;28;20504;-68
2022/05/28 04:21:06;;;;;;;13.50;1.75;;;;;;;15.76;51.33;102121.53;5014292;28;20037;-68
2022/05/28 04:23:32;;;;;;;9.93;1.75;;;;;;;15.97;51.04;102125.59;5014228;28;20114;-69
2022/05/28 04:25:57;;;;;;;10.07;1.75;;;;;;;15.32;52.60;102130.75;5014575;28;20022;-65
2022/05/28 04:28:22;;;;;;;8.52;1.52;;;;;;;15.59;52.03;102134.84;5014960;28;20041;-67
2022/05/28 04:30:48;;;;;;;11.63;1.58;;;;;;;15.73;51.46;102136.34;5014628;28;20219;-68
2022/05/28 04:33:13;;;;;;;7.18;1.27;;;;;;;15.87;51.12;102137.00;5014647;28;20042;-69
2022/05/28 04:35:39;;;;;;;10.38;2.42;;;;;;;15.98;50.70;102132.69;5014337;28;20038;-67
2022/05/28 04:38:04;;;;;;;6.38;0.95;;;;;;;15.72;51.40;102139.28;5013978;28;20086;-66
2022/05/28 04:40:29;;;;;;;5.60;1.42;;;;;;;15.30;52.58;102135.56;5015041;28;20053;-68
2022/05/28 04:42:55;;;;;;;1.95;1.00;;;;;;;15.63;51.48;102138.75;5014423;28;20103;-69
2022/05/28 04:45:20;;;;;;;6.50;1.60;;;;;;;15.92;51.11;102142.56;5014123;28;20363;-68
2022/05/28 04:47:46;;;;;;;11.07;1.05;;;;;;;15.34;52.79;102144.91;5014232;28;20117;-66
2022/05/28 04:50:11;;;;;;;15.35;2.28;;;;;;;15.56;52.18;102142.59;5014374;28;20041;-69
2022/05/28 04:52:38;;;;;;;3.35;0.95;;;;;;;15.75;51.99;102133.41;5014961;28;20509;-68
2022/05/28 04:55:07;;;;;;;7.63;2.05;;;;;;;15.99;51.83;102140.59;5013824;28;20037;-69
2022/05/28 04:57:33;;;;;;;5.90;1.30;;;;;;;16.08;51.33;102141.91;5014085;28;20076;-68
2022/05/28 04:59:58;;;;;;;5.93;0.93;;;;;;;15.55;52.35;102132.81;5013917;28;20437;-69
2022/05/28 05:02:24;;;;;;;5.10;1.13;;;;;;;16.15;51.07;102139.97;5013803;28;20033;-69
2022/05/28 05:04:57;;;;;;;10.43;1.25;;;;;;;16.18;50.89;102147.63;5013303;28;20113;-68
2022/05/28 05:07:23;;;;;;;8.00;1.77;;;;;;;15.43;52.83;102142.78;5014081;28;20490;-69
2022/05/28 05:09:49;;;;;;;4.55;1.15;;;;;;;15.95;51.83;102144.81;5013844;28;20037;-67
2022/05/28 05:12:15;;;;;;;19.15;2.30;;;;;;;15.87;52.32;102147.84;5013804;28;20033;-67
2022/05/28 05:14:40;;;;;;;8.02;2.10;;;;;;;15.97;51.51;102145.41;5013495;28;20597;-68
2022/05/28 05:17:06;;;;;;;6.70;1.58;;;;;;;16.23;51.52;102150.50;5013564;28;20378;-69
2022/05/28 05:19:31;;;;;;;8.88;1.52;;;;;;;15.70;51.95;102144.09;5013958;28;20025;-71
2022/05/28 05:21:57;;;;;;;8.73;2.00;;;;;;;16.06;52.08;102135.91;5013577;28;20490;-69
2022/05/28 05:24:23;;;;;;;10.05;1.70;;;;;;;15.86;51.82;102148.09;5013347;28;20037;-70
2022/05/28 05:26:48;;;;;;;9.98;1.92;;;;;;;15.88;51.67;102152.19;4995775;28;20038;-71
2022/05/28 05:29:14;;;;;;;7.25;1.38;;;;;;;16.34;50.83;102146.13;5013418;28;20096;-68
2022/05/28 05:31:40;;;;;;;10.80;2.33;;;;;;;16.37;51.09;102146.50;5013981;28;20033;-69
2022/05/28 05:34:06;;;;;;;14.43;1.70;;;;;;;16.80;49.47;102150.88;5013261;28;20417;-67
2022/05/28 05:36:32;;;;;;;15.40;1.83;;;;;;;16.68;50.01;102157.13;5013247;28;20130;-68
2022/05/28 05:38:58;;;;;;;8.82;3.45;;;;;;;16.79;49.03;102158.19;5013354;28;20126;-68
2022/05/28 05:41:23;;;;;;;5.25;1.20;;;;;;;16.02;51.09;102155.59;5013366;28;20026;-69
2022/05/28 05:43:48;;;;;;;22.80;2.35;;;;;;;16.50;50.43;102153.66;5013605;28;20045;-69
2022/05/28 05:46:14;;;;;;;9.13;1.70;;;;;;;16.20;50.23;102164.50;5012880;28;20042;-72
2022/05/28 05:48:39;;;;;;;8.27;1.40;;;;;;;15.88;51.41;102167.66;5013075;28;20072;-74
2022/05/28 05:51:11;;;;;;;17.92;2.13;;;;;;;17.35;48.10;102158.47;5013103;28;20074;-69
2022/05/28 05:53:36;;;;;;;14.73;1.70;;;;;;;15.72;51.55;102158.25;5013052;28;20038;-71
2022/05/28 05:56:02;;;;;;;7.07;2.20;;;;;;;16.24;50.79;102157.56;5012773;28;20532;-69
2022/05/28 05:58:28;;;;;;;4.95;1.35;;;;;;;15.71;51.97;102167.44;5013390;28;20025;-74
2022/05/28 06:00:53;;;;;;;14.57;1.80;;;;;;;16.34;50.45;102160.53;5011122;28;20092;-66
2022/05/28 06:03:19;;;;;;;6.70;1.38;;;;;;;16.09;51.05;102175.31;5012998;28;20088;-68
2022/05/28 06:05:44;;;;;;;15.70;1.58;;;;;;;17.35;48.50;102166.63;5012802;28;20034;-70
2022/05/28 06:08:11;;;;;;;8.25;1.40;;;;;;;16.29;50.18;102165.00;5011973;28;20026;-69
2022/05/28 06:10:37;;;;;;;14.27;2.08;;;;;;;15.83;51.01;102163.75;5012639;28;20517;-67
2022/05/28 06:13:03;;;;;;;13.15;1.95;;;;;;;16.15;50.44;102158.94;5011649;28;20044;-70
2022/05/28 06:15:28;;;;;;;14.38;1.85;;;;;;;16.12;48.76;102170.25;5011271;28;20520;-70
2022/05/28 06:17:54;;;;;;;7.25;1.63;;;;;;;16.00;50.11;102171.25;5011443;28;20044;-68
2022/05/28 06:20:19;;;;;;;7.88;1.50;;;;;;;16.68;48.08;102178.03;5011390;28;20034;-70
2022/05/28 06:22:45;;;;;;;9.98;2.28;;;;;;;16.85;46.89;102172.72;5011548;28;20022;-68
2022/05/28 06:25:10;;;;;;;11.98;1.85;;;;;;;16.12;48.06;102185.69;5009644;28;20041;-69
2022/05/28 06:27:36;;;;;;;8.73;1.38;;;;;;;16.42;47.37;102171.06;5010048;28;20056;-68
2022/05/28 06:30:02;;;;;;;13.60;1.67;;;;;;;17.67;44.81;102185.28;5010528;28;20046;-69
2022/05/28 06:32:27;;;;;;;6.97;1.80;;;;;;;17.25;46.08;102187.28;5010414;28;20056;-69
2022/05/28 06:34:54;;;;;;;14.40;2.50;;;;;;;16.81;46.33;102191.38;4992557;28;20072;-67
2022/05/28 06:37:20;;;;;;;9.15;2.65;;;;;;;16.98;45.46;102189.63;5008517;28;20390;-70
2022/05/28 06:39:45;;;;;;;9.82;1.77;;;;;;;17.35;46.47;102177.50;5005071;28;20030;-67
2022/05/28 06:42:10;;;;;;;7.75;1.42;;;;;;;17.28;45.52;102176.75;4992346;28;20037;-69
2022/05/28 06:44:36;;;;;;;8.48;3.78;;;;;;;17.01;45.14;102182.91;5007907;28;20497;-67
2022/05/28 06:47:03;;;;;;;8.50;2.22;;;;;;;16.93;45.61;102183.25;5008657;28;20355;-68
2022/05/28 06:49:29;;;;;;;8.73;1.95;;;;;;;17.65;44.63;102179.25;5011575;28;20034;-69
2022/05/28 06:51:54;;;;;;;6.25;1.55;;;;;;;17.33;45.38;102184.22;5010807;28;20058;-68
2022/05/28 06:54:20;;;;;;;13.02;2.38;;;;;;;16.87;44.77;102185.00;5010398;28;20038;-69
2022/05/28 06:56:45;;;;;;;10.52;1.48;;;;;;;17.03;43.97;102186.19;5008319;28;20038;-70
2022/05/28 06:59:10;;;;;;;9.50;2.15;;;;;;;17.52;43.92;102189.31;5002187;28;20025;-69
2022/05/28 07:01:36;;;;;;;9.98;2.05;;;;;;;17.83;43.42;102189.94;5010388;28;20036;-68
2022/05/28 07:04:02;;;;;;;7.18;1.38;;;;;;;16.90;44.34;102192.69;5010542;28;20109;-72
2022/05/28 07:06:29;;;;;;;9.40;1.80;;;;;;;17.94;42.86;102194.53;5010917;28;20034;-69
2022/05/28 07:08:55;;;;;;;8.60;2.28;;;;;;;17.01;44.18;102191.03;5010487;28;20054;-70
2022/05/28 07:11:20;;;;;;;6.97;1.25;;;;;;;17.45;43.32;102194.00;5009741;28;20038;-69
2022/05/28 07:13:46;;;;;;;8.98;1.83;;;;;;;18.27;42.08;102195.50;5010666;28;20496;-69
2022/05/28 07:16:11;;;;;;;4.00;1.75;;;;;;;18.52;40.95;102181.56;5006771;28;20075;-67
2022/05/28 07:18:38;;;;;;;8.23;2.65;;;;;;;17.83;42.55;102196.22;5021302;28;20095;-69
2022/05/28 07:21:05;;;;;;;10.43;1.98;;;;;;;18.03;42.56;102193.09;5028306;28;20555;-70
2022/05/28 07:23:31;;;;;;;10.15;1.67;;;;;;;18.72;40.23;102181.09;5030289;28;20088;-68
2022/05/28 07:25:59;;;;;;;13.60;3.22;;;;;;;18.32;41.53;102181.13;5028990;28;20144;-73
2022/05/28 07:28:25;;;;;;;9.75;2.72;;;;;;;17.93;40.90;102187.44;5033029;28;20049;-73
2022/05/28 07:30:52;;;;;;;7.07;1.65;;;;;;;18.53;41.32;102190.56;5033806;28;20044;-73
2022/05/28 07:33:18;;;;;;;11.63;2.25;;;;;;;18.58;41.90;102187.91;5033963;28;20045;-72
2022/05/28 07:35:43;;;;;;;14.75;1.70;;;;;;;18.28;41.96;102194.41;5033438;28;20088;-69
2022/05/28 07:38:09;;;;;;;9.48;1.95;;;;;;;17.63;42.10;102197.69;5028218;28;20025;-72
2022/05/28 07:40:34;;;;;;;11.68;2.33;;;;;;;17.88;43.26;102200.94;5024680;28;20032;-70
2022/05/28 07:43:02;;;;;;;8.48;1.92;;;;;;;17.81;43.23;102206.50;5025037;28;20033;-71
2022/05/28 07:45:27;;;;;;;7.57;1.58;;;;;;;17.43;45.04;102200.75;5033917;28;20095;-69
2022/05/28 07:47:53;;;;;;;9.70;1.67;;;;;;;18.09;43.02;102203.84;5015093;28;20143;-72
2022/05/28 07:50:20;;;;;;;9.13;1.92;;;;;;;18.79;42.58;102201.63;5033779;28;20401;-70
2022/05/28 07:52:47;;;;;;;8.65;1.92;;;;;;;19.02;41.13;102195.22;5016380;28;20025;-70
2022/05/28 07:55:13;;;;;;;15.32;1.90;;;;;;;19.48;38.44;102199.50;5033530;28;20049;-71
2022/05/28 07:57:40;;;;;;;11.15;3.25;;;;;;;18.13;40.29;102202.28;5030961;28;20481;-71
2022/05/28 08:00:06;;;;;;;9.48;1.75;;;;;;;19.09;38.69;102202.16;5033241;28;20099;-71
2022/05/28 08:02:31;;;;;;;6.97;1.25;;;;;;;19.00;38.38;102200.09;5032694;28;20033;-68
2022/05/28 08:04:56;;;;;;;13.63;2.13;;;;;;;18.97;38.76;102209.56;5027101;28;20048;-70
2022/05/28 08:07:22;;;;;;;5.28;1.20;;;;;;;19.55;37.56;102191.97;5029348;28;20049;-71
2022/05/28 08:09:47;;;;;;;12.77;2.15;;;;;;;19.83;38.29;102186.34;5029290;28;20495;-72
2022/05/28 08:12:13;;;;;;;12.07;1.77;;;;;;;17.97;39.80;102213.94;5030459;28;20033;-75
2022/05/28 08:14:38;;;;;;;9.80;1.90;;;;;;;18.15;39.98;102194.72;5030701;28;20037;-71
2022/05/28 08:17:04;;;;;;;7.07;1.50;;;;;;;19.13;38.95;102197.03;5033479;28;20405;-69
2022/05/28 08:19:33;;;;;;;6.90;1.83;;;;;;;18.39;39.09;102196.28;5034008;28;20116;-71
2022/05/28 08:24:42;;;;;;;6.13;1.85;;;;;;;19.40;37.64;102186.28;5032070;28;20136;-72
2022/05/28 08:27:08;;;;;;;7.35;1.40;;;;;;;19.53;38.09;102188.66;5032643;28;20041;-73
2022/05/28 08:29:33;;;;;;;10.35;2.15;;;;;;;19.31;39.81;102202.22;5033339;28;20041;-70
2022/05/28 08:31:58;;;;;;;7.18;1.38;;;;;;;17.82;42.48;102205.47;5031074;28;20113;-73
2022/05/28 08:34:24;;;;;;;11.63;2.50;;;;;;;18.54;41.13;102214.81;5032559;28;20044;-78
2022/05/28 08:36:49;;;;;;;15.95;2.10;;;;;;;18.89;42.04;102203.69;5032467;28;20099;-70
2022/05/28 08:39:14;;;;;;;14.02;1.95;;;;;;;18.44;42.48;102202.91;5030669;28;20056;-70
2022/05/28 08:41:52;;;;;;;8.55;1.80;;;;;;;18.84;41.89;102203.63;5030240;28;20046;-71
2022/05/28 08:44:21;;;;;;;12.68;2.20;;;;;;;20.06;39.18;102191.53;5029011;28;20462;-71
2022/05/28 08:46:53;;;;;;;12.75;1.92;;;;;;;19.08;40.54;102194.22;5032469;28;20536;-71
2022/05/28 08:49:21;;;;;;;8.63;2.17;;;;;;;18.79;39.39;102212.53;5032607;28;20060;-70
2022/05/28 08:51:54;;;;;;;11.02;1.52;;;;;;;19.12;38.62;102212.53;5031169;28;20037;-69
2022/05/28 08:54:31;;;;;;;10.95;1.75;;;;;;;18.64;40.01;102209.53;5031325;28;20092;-70
2022/05/28 08:57:01;;;;;;;5.53;1.88;;;;;;;20.07;37.92;102199.44;5029051;28;20033;-70
2022/05/28 08:59:50;;;;;;;16.40;4.03;;;;;;;20.62;37.95;102201.16;5031826;28;20037;-69
2022/05/28 09:02:39;;;;;;;8.55;1.60;;;;;;;20.41;35.81;102210.22;5027816;28;20049;-70
2022/05/28 09:05:16;;;;;;;11.73;2.50;;;;;;;20.87;35.40;102193.22;5031359;28;20029;-71
2022/05/28 09:07:42;;;;;;;17.13;2.15;;;;;;;19.85;38.55;102209.53;5031869;28;20018;-70
2022/05/28 09:10:10;;;;;;;14.68;1.80;;;;;;;19.00;40.07;102211.00;5032151;28;20042;-71
2022/05/28 09:12:45;;;;;;;12.95;1.90;;;;;;;18.56;40.67;102201.78;5029984;28;20033;-69
2022/05/28 09:15:11;;;;;;;7.70;1.65;;;;;;;18.45;40.00;102215.44;5031380;28;20139;-73
2022/05/28 09:17:43;;;;;;;7.03;1.25;;;;;;;19.33;37.37;102211.00;5031527;28;20382;-72
2022/05/28 09:20:16;;;;;;;13.02;1.95;;;;;;;19.24;38.15;102201.56;5030637;28;20069;-71
2022/05/28 09:22:42;;;;;;;8.90;2.25;;;;;;;19.25;37.74;102204.03;5032144;28;20025;-71
2022/05/28 09:25:08;;;;;;;5.28;1.85;;;;;;;19.15;38.32;102211.22;5031551;28;20417;-72
2022/05/28 09:27:44;;;;;;;9.57;2.05;;;;;;;18.73;39.51;102218.94;5031235;28;20049;-72
2022/05/28 09:30:25;;;;;;;7.47;1.70;;;;;;;18.37;39.86;102213.91;5026815;28;20049;-71
2022/05/28 09:33:09;;;;;;;;;;;;;;;18.42;40.45;102220.31;5029571;28;20030;-70
2022/05/28 09:35:53;;;;;;;10.35;2.05;;;;;;;18.59;38.93;102212.19;5025311;28;20347;-70
2022/05/28 09:38:34;;;;;;;7.15;1.67;;;;;;;18.92;38.37;102203.22;5013708;28;20540;-67
2022/05/28 09:41:18;;;;;;;;;;;;;;;19.96;36.43;102197.69;5030171;28;20041;-74
2022/05/28 09:44:16;;;;;;;5.80;1.40;;;;;;;20.66;35.62;102194.09;5030979;28;19924;-78
2022/05/28 09:46:44;;;;;;;8.55;1.75;;;;;;;18.97;35.30;102222.38;5030972;28;20444;-73
2022/05/28 09:49:11;;;;;;;5.68;1.33;;;;;;;19.20;35.22;102205.88;5030965;28;20073;-72
2022/05/28 09:51:37;;;;;;;7.28;1.35;;;;;;;18.92;36.21;102214.13;5012526;28;20433;-69
2022/05/28 09:54:20;;;;;;;9.15;1.45;;;;;;;19.29;37.41;102213.38;5030038;28;20030;-72
2022/05/28 09:56:53;;;;;;;7.22;1.55;;;;;;;18.74;39.38;102214.34;5011950;28;20036;-73
2022/05/28 09:59:35;;;;;;;4.80;1.60;;;;;;;18.61;38.62;102222.84;5029508;28;20037;-72
2022/05/28 10:02:15;;;;;;;7.95;1.52;;;;;;;18.79;37.24;102211.72;5030305;28;20068;-73
2022/05/28 10:04:49;;;;;;;7.40;2.20;;;;;;;19.22;37.37;102209.97;5033135;28;20029;-70
2022/05/28 10:07:36;;;;;;;10.38;2.25;;;;;;;19.36;36.83;102206.94;5030409;28;20168;-75
2022/05/28 10:10:22;;;;;;;10.65;1.75;;;;;;;20.17;35.57;102198.75;5010491;28;20034;-69
2022/05/28 10:12:48;;;;;;;8.18;2.05;;;;;;;20.74;35.33;102199.09;5030056;28;20025;-71
2022/05/28 10:15:18;;;;;;;14.27;2.35;;;;;;;19.45;38.66;102202.72;5030881;28;20037;-72
2022/05/28 10:17:52;;;;;;;11.02;1.85;;;;;;;18.84;39.57;102207.19;5031511;28;20527;-73
2022/05/28 10:20:19;;;;;;;13.00;2.05;;;;;;;19.24;39.21;102207.81;5029519;28;20582;-71
2022/05/28 10:22:51;;;;;;;12.10;2.40;;;;;;;19.54;39.32;102207.47;5031427;28;20084;-67
2022/05/28 10:25:37;;;;;;;8.73;2.00;;;;;;;18.46;40.84;102222.53;5031314;28;20056;-72
2022/05/28 10:28:03;;;;;;;13.65;2.70;;;;;;;18.75;39.90;102211.38;5030943;28;20033;-71
2022/05/28 10:30:43;;;;;;;9.82;2.95;;;;;;;19.26;37.90;102216.56;5030528;28;20052;-72
2022/05/28 10:33:14;;;;;;;7.40;1.65;;;;;;;20.15;36.75;102207.19;5004212;28;20088;-68
2022/05/28 10:35:40;;;;;;;11.00;2.40;;;;;;;21.16;35.11;102202.75;5027727;28;20030;-69
2022/05/28 10:38:20;;;;;;;10.65;1.92;;;;;;;21.71;33.95;102191.34;5025911;28;20196;-71
2022/05/28 10:40:54;;;;;;;9.93;2.63;;;;;;;21.52;34.58;102201.88;5027961;28;20080;-70
2022/05/28 10:43:36;;;;;;;9.30;1.98;;;;;;;20.53;36.02;102192.63;5026947;28;20040;-71
2022/05/28 10:46:14;;;;;;;14.38;1.92;;;;;;;20.89;35.10;102200.03;5027481;28;20045;-72
2022/05/28 10:49:03;;;;;;;7.47;1.58;;;;;;;20.59;34.21;102198.94;5028801;28;20049;-71
2022/05/28 10:51:56;;;;;;;7.10;1.27;;;;;;;20.99;33.16;102202.06;5028305;28;20391;-66
2022/05/28 10:54:48;;;;;;;9.75;1.77;;;;;;;21.22;31.78;102190.78;5026758;28;20037;-68
2022/05/28 10:57:37;;;;;;;6.57;1.40;;;;;;;20.71;32.52;102194.97;5026637;28;20107;-69
2022/05/28 11:00:11;;;;;;;7.53;1.50;;;;;;;21.87;32.19;102186.78;5024322;28;20505;-69
2022/05/28 11:02:45;;;;;;;11.27;2.17;;;;;;;22.59;30.83;102182.06;5022444;28;20493;-69
2022/05/28 11:05:47;;;;;;;3.38;1.40;;;;;;;20.92;33.28;102187.75;5020283;28;20043;-69
2022/05/28 11:08:42;;;;;;;11.05;2.20;;;;;;;20.69;34.09;102190.84;5020942;28;20050;-70
2022/05/28 11:11:55;;;;;;;12.45;1.98;;;;;;;19.27;36.98;102196.44;5023301;28;20386;-72
2022/05/28 11:14:32;;;;;;;11.43;1.90;;;;;;;19.75;37.38;102201.22;4942666;29;20478;-70
2022/05/28 11:17:18;;;;;;;8.95;1.85;;;;;;;19.27;37.52;102210.06;4948213;28;20529;-72
2022/05/28 11:19:53;;;;;;;7.38;1.90;;;;;;;19.21;37.98;102208.34;4942789;29;20038;-69
2022/05/28 11:22:35;;;;;;;10.43;1.77;;;;;;;20.18;36.24;102205.88;4940903;28;20073;-69
2022/05/28 11:25:13;;;;;;;9.23;1.63;;;;;;;21.04;35.64;102196.66;4940968;29;20086;-68
2022/05/28 11:28:10;;;;;;;6.10;1.13;;;;;;;19.47;37.43;102189.66;4942081;29;20098;-73
2022/05/28 11:30:47;;;;;;;7.93;1.58;;;;;;;19.82;36.08;102190.97;4922671;29;20171;-71
2022/05/28 11:33:34;;;;;;;8.32;1.63;;;;;;;19.81;35.10;102183.03;4923599;29;20047;-67
2022/05/28 11:36:12;;;;;;;8.80;1.33;;;;;;;20.42;33.20;102190.84;4922293;29;20487;-69
2022/05/28 11:38:44;;;;;;;9.95;2.47;;;;;;;20.39;34.62;102190.53;4923135;29;20472;-70
2022/05/28 11:41:18;;;;;;;13.95;1.95;;;;;;;20.35;35.65;102183.94;4923471;29;20044;-69